Time;durP1;ratioP1;P1;durP2;ratioP2;P2;SDS_P1;SDS_P2;PMS_P1;PMS_P2;Temp;Humidity;BMP_temperature;BMP_pressure;BME280_temperature;BME280_humidity;BME280_pressure;Samples;Min_cycle;Max_cycle;Signal;HPM_P1;HPM_P2
2022/09/25 00:01:37;;;;;;;14.40;7.20;;;;;;;;;;4911670;29;20040;-64
2022/09/25 00:04:03;;;;;;;18.77;6.97;;;;;;;;;;4915773;29;20437;-64
2022/09/25 00:06:30;;;;;;;12.73;6.30;;;;;;;;;;4914083;29;20107;-64
2022/09/25 00:08:55;;;;;;;12.38;5.70;;;;;;;;;;4909377;29;20035;-64
2022/09/25 00:11:31;;;;;;;11.15;5.88;;;;;;;;;;4913764;29;20452;-64
2022/09/25 00:13:58;;;;;;;11.32;5.32;;;;;;;;;;4913408;29;20095;-64
2022/09/25 00:16:26;;;;;;;12.27;5.32;;;;;;;;;;4914608;29;20040;-64
2022/09/25 00:21:36;;;;;;;13.73;5.55;;;;;;;;;;4910864;29;20175;-63
2022/09/25 00:24:08;;;;;;;10.20;3.80;;;;;;;;;;4908139;29;20474;-64
2022/09/25 00:26:36;;;;;;;9.30;4.10;;;;;;;;;;4902189;29;20416;-64
2022/09/25 00:29:03;;;;;;;10.80;4.25;;;;;;;;;;4911832;29;20043;-64
2022/09/25 00:31:29;;;;;;;9.75;3.83;;;;;;;;;;4909874;29;20574;-63
2022/09/25 00:34:01;;;;;;;8.35;3.97;;;;;;;;;;4912687;29;20044;-64
2022/09/25 00:36:27;;;;;;;16.00;4.28;;;;;;;;;;4914672;29;20143;-64
2022/09/25 00:38:53;;;;;;;12.23;4.72;;;;;;;;;;4914039;29;20044;-64
2022/09/25 00:41:22;;;;;;;11.25;4.25;;;;;;;;;;4915671;29;20047;-64
2022/09/25 00:43:57;;;;;;;12.45;4.18;;;;;;;;;;4914352;29;20062;-63
2022/09/25 00:46:22;;;;;;;12.95;4.28;;;;;;;;;;4914727;29;20036;-64
2022/09/25 00:48:57;;;;;;;12.13;4.28;;;;;;;;;;4913240;29;20047;-64
2022/09/25 00:51:28;;;;;;;10.05;4.35;;;;;;;;;;4913055;29;20044;-63
2022/09/25 00:53:54;;;;;;;;;;;;;;;;;;4911377;29;20127;-63
2022/09/25 00:56:19;;;;;;;7.38;3.60;;;;;;;;;;4911695;29;19966;-65
2022/09/25 00:58:46;;;;;;;9.73;3.80;;;;;;;;;;4913935;29;20122;-66
2022/09/25 01:01:11;;;;;;;9.75;3.90;;;;;;;;;;4895435;29;20506;-65
2022/09/25 01:03:40;;;;;;;11.13;3.83;;;;;;;;;;4912330;29;20082;-65
2022/09/25 01:06:07;;;;;;;11.60;3.72;;;;;;;;;;4906132;29;20678;-64
2022/09/25 01:08:33;;;;;;;11.98;3.88;;;;;;;;;;4913426;29;20405;-64
2022/09/25 01:10:59;;;;;;;6.95;3.38;;;;;;;;;;4905499;29;20032;-65
2022/09/25 01:13:27;;;;;;;9.35;3.35;;;;;;;;;;4912786;29;20055;-65
2022/09/25 01:16:07;;;;;;;10.02;3.58;;;;;;;;;;4913688;29;20144;-64
2022/09/25 01:18:41;;;;;;;13.43;3.60;;;;;;;;;;4915355;29;20036;-65
2022/09/25 01:21:17;;;;;;;12.50;3.17;;;;;;;;;;4907690;29;20035;-65
2022/09/25 01:24:01;;;;;;;10.55;3.20;;;;;;;;;;4913225;29;20123;-64
2022/09/25 01:27:00;;;;;;;7.47;2.80;;;;;;;;;;4910295;29;20039;-65
2022/09/25 01:29:25;;;;;;;8.07;3.00;;;;;;;;;;4913075;29;20056;-65
2022/09/25 01:32:14;;;;;;;11.73;2.95;;;;;;;;;;4911615;29;20074;-65
2022/09/25 01:34:49;;;;;;;6.20;2.65;;;;;;;;;;4914259;29;20066;-64
2022/09/25 01:37:23;;;;;;;7.65;3.05;;;;;;;;;;4913204;29;20036;-65
2022/09/25 01:40:01;;;;;;;7.90;2.60;;;;;;;;;;4909413;29;20119;-64
2022/09/25 01:42:36;;;;;;;7.25;2.78;;;;;;;;;;4917577;29;20417;-64
2022/09/25 01:45:05;;;;;;;9.40;2.50;;;;;;;;;;4911217;29;20049;-65
2022/09/25 01:47:36;;;;;;;12.90;2.83;;;;;;;;;;4912618;29;20111;-64
2022/09/25 01:50:17;;;;;;;9.02;2.97;;;;;;;;;;4912106;29;20036;-64
2022/09/25 01:52:48;;;;;;;7.35;2.40;;;;;;;;;;4908479;29;20355;-64
2022/09/25 01:55:29;;;;;;;10.18;2.53;;;;;;;;;;4903720;29;20032;-64
2022/09/25 01:58:01;;;;;;;8.65;2.83;;;;;;;;;;4911608;29;20042;-65
2022/09/25 02:00:27;;;;;;;8.63;2.55;;;;;;;;;;4912261;29;20032;-64
2022/09/25 02:03:10;;;;;;;9.75;3.13;;;;;;;;;;4909243;29;20040;-65
2022/09/25 02:05:52;;;;;;;7.63;2.78;;;;;;;;;;4910184;29;20039;-64
2022/09/25 02:08:26;;;;;;;7.25;2.55;;;;;;;;;;4913658;29;20046;-65
2022/09/25 02:10:56;;;;;;;10.57;2.88;;;;;;;;;;4908743;29;20048;-65
2022/09/25 02:13:25;;;;;;;7.35;2.50;;;;;;;;;;4912840;29;20123;-64
2022/09/25 02:15:55;;;;;;;8.40;2.80;;;;;;;;;;4910657;29;20069;-65
2022/09/25 02:21:18;;;;;;;6.93;2.10;;;;;;;;;;4905512;29;20047;-65
2022/09/25 02:24:18;;;;;;;7.32;2.10;;;;;;;;;;4913066;29;20102;-64
2022/09/25 02:26:43;;;;;;;7.38;2.28;;;;;;;;;;4882581;29;20541;-65
2022/09/25 02:29:09;;;;;;;6.60;2.10;;;;;;;;;;4911067;29;20035;-65
2022/09/25 02:31:39;;;;;;;12.90;2.58;;;;;;;;;;4910842;29;20496;-65
2022/09/25 02:34:05;;;;;;;7.87;2.53;;;;;;;;;;4912712;29;20048;-64
2022/09/25 02:36:32;;;;;;;8.68;2.55;;;;;;;;;;4913501;29;20480;-64
2022/09/25 02:38:59;;;;;;;9.27;2.50;;;;;;;;;;4912196;29;20055;-64
2022/09/25 02:41:40;;;;;;;5.78;2.55;;;;;;;;;;4913370;29;20040;-64
2022/09/25 02:44:31;;;;;;;8.23;2.35;;;;;;;;;;4892924;29;20063;-64
2022/09/25 02:47:33;;;;;;;8.30;2.35;;;;;;;;;;4909711;29;20138;-64
2022/09/25 02:50:16;;;;;;;5.35;2.42;;;;;;;;;;4910419;29;20389;-64
2022/09/25 02:53:00;;;;;;;11.68;2.20;;;;;;;;;;4915140;29;20370;-65
2022/09/25 02:56:02;;;;;;;9.23;2.85;;;;;;;;;;4907444;29;20119;-64
2022/09/25 02:58:36;;;;;;;5.72;2.03;;;;;;;;;;4902823;29;20056;-64
2022/09/25 03:01:05;;;;;;;8.57;2.33;;;;;;;;;;4902764;29;20084;-65
2022/09/25 03:03:32;;;;;;;10.57;2.30;;;;;;;;;;4911260;29;20048;-66
2022/09/25 03:05:59;;;;;;;7.03;2.40;;;;;;;;;;4907756;29;20071;-65
2022/09/25 03:08:39;;;;;;;8.38;3.00;;;;;;;;;;4914110;29;20071;-64
2022/09/25 03:11:07;;;;;;;9.67;2.73;;;;;;;;;;4908783;29;20044;-64
2022/09/25 03:13:33;;;;;;;10.73;2.75;;;;;;;;;;4915736;29;20043;-64
2022/09/25 03:16:22;;;;;;;5.90;2.50;;;;;;;;;;4916041;29;20036;-64
2022/09/25 03:18:47;;;;;;;6.30;2.28;;;;;;;;;;4914913;29;20046;-64
2022/09/25 03:21:12;;;;;;;8.10;2.40;;;;;;;;;;4897557;29;20115;-65
2022/09/25 03:23:38;;;;;;;10.57;2.55;;;;;;;;;;4917290;29;20362;-64
2022/09/25 03:26:04;;;;;;;9.60;2.72;;;;;;;;;;4914981;29;20078;-65
2022/09/25 03:28:30;;;;;;;11.23;2.60;;;;;;;;;;4904492;29;20063;-65
2022/09/25 03:31:01;;;;;;;8.80;2.35;;;;;;;;;;4911936;29;20523;-65
2022/09/25 03:33:28;;;;;;;8.95;2.60;;;;;;;;;;4908288;29;20486;-65
2022/09/25 03:36:12;;;;;;;10.07;2.78;;;;;;;;;;4914161;29;20043;-65
2022/09/25 03:38:41;;;;;;;10.52;3.05;;;;;;;;;;4911647;29;20044;-64
2022/09/25 03:41:08;;;;;;;10.40;3.42;;;;;;;;;;4913813;29;20032;-63
2022/09/25 03:43:36;;;;;;;13.18;2.92;;;;;;;;;;4916976;29;20039;-64
2022/09/25 03:46:06;;;;;;;10.35;2.67;;;;;;;;;;4912941;29;20038;-63
2022/09/25 03:48:32;;;;;;;12.15;2.97;;;;;;;;;;4916943;29;20043;-63
2022/09/25 03:50:57;;;;;;;9.95;2.83;;;;;;;;;;4913008;29;20047;-64
2022/09/25 03:53:24;;;;;;;12.85;3.00;;;;;;;;;;4914438;29;20036;-66
2022/09/25 03:55:50;;;;;;;11.13;3.30;;;;;;;;;;4914369;29;20494;-64
2022/09/25 03:58:16;;;;;;;12.93;2.92;;;;;;;;;;4903496;29;20036;-64
2022/09/25 04:00:44;;;;;;;13.73;3.28;;;;;;;;;;4910117;29;20032;-64
2022/09/25 04:03:10;;;;;;;13.63;2.90;;;;;;;;;;4909618;29;20513;-64
2022/09/25 04:05:35;;;;;;;12.68;2.72;;;;;;;;;;4915936;29;20083;-64
2022/09/25 04:08:01;;;;;;;7.13;2.42;;;;;;;;;;4911584;29;20381;-64
2022/09/25 04:10:27;;;;;;;11.82;2.60;;;;;;;;;;4913466;29;20044;-64
2022/09/25 04:12:53;;;;;;;10.45;2.70;;;;;;;;;;4913135;29;20170;-64
2022/09/25 04:15:21;;;;;;;7.43;2.55;;;;;;;;;;4915203;29;20437;-64
2022/09/25 04:17:47;;;;;;;11.20;2.47;;;;;;;;;;4915686;29;20036;-64
2022/09/25 04:20:13;;;;;;;12.55;2.60;;;;;;;;;;4912659;29;20043;-64
2022/09/25 04:22:38;;;;;;;7.47;2.50;;;;;;;;;;4915863;29;20038;-64
2022/09/25 04:25:06;;;;;;;8.15;2.30;;;;;;;;;;4914737;29;20068;-64
2022/09/25 04:27:31;;;;;;;9.52;2.47;;;;;;;;;;4914721;29;20119;-64
2022/09/25 04:29:56;;;;;;;6.38;2.20;;;;;;;;;;4913473;29;21687;-64
2022/09/25 04:35:06;;;;;;;9.32;2.45;;;;;;;;;;4914875;29;20059;-64
2022/09/25 04:37:32;;;;;;;10.05;2.08;;;;;;;;;;4912514;29;20453;-64
2022/09/25 04:39:57;;;;;;;7.28;2.42;;;;;;;;;;4914519;29;20040;-64
2022/09/25 04:42:24;;;;;;;8.88;2.67;;;;;;;;;;4916427;29;20087;-64
2022/09/25 04:44:51;;;;;;;10.27;1.98;;;;;;;;;;4913882;29;20052;-64
2022/09/25 04:47:17;;;;;;;13.35;2.53;;;;;;;;;;4913755;29;20036;-64
2022/09/25 04:49:42;;;;;;;10.00;2.50;;;;;;;;;;4914970;29;20068;-64
2022/09/25 04:52:08;;;;;;;9.63;2.38;;;;;;;;;;4899311;29;20743;-64
2022/09/25 04:54:33;;;;;;;8.25;2.63;;;;;;;;;;4915427;29;20024;-64
2022/09/25 04:56:58;;;;;;;7.75;2.45;;;;;;;;;;4894177;29;20036;-64
2022/09/25 04:59:24;;;;;;;6.93;2.10;;;;;;;;;;4917260;29;20529;-64
2022/09/25 05:01:49;;;;;;;8.77;2.33;;;;;;;;;;4897232;29;20040;-64
2022/09/25 05:04:15;;;;;;;7.72;2.47;;;;;;;;;;4912787;29;20382;-64
2022/09/25 05:06:40;;;;;;;6.85;2.78;;;;;;;;;;4911579;29;20040;-64
2022/09/25 05:09:06;;;;;;;7.38;2.30;;;;;;;;;;4915434;29;20036;-64
2022/09/25 05:11:31;;;;;;;10.88;2.88;;;;;;;;;;4914327;29;20048;-64
2022/09/25 05:13:57;;;;;;;10.10;2.53;;;;;;;;;;4915385;29;20054;-64
2022/09/25 05:16:22;;;;;;;9.55;2.75;;;;;;;;;;4915844;29;20095;-64
2022/09/25 05:18:47;;;;;;;7.40;2.47;;;;;;;;;;4914619;29;20131;-64
2022/09/25 05:21:13;;;;;;;8.95;2.67;;;;;;;;;;4914641;29;20040;-64
2022/09/25 05:23:38;;;;;;;9.50;2.63;;;;;;;;;;4914742;29;20413;-64
2022/09/25 05:26:04;;;;;;;5.50;2.67;;;;;;;;;;4914519;29;20118;-64
2022/09/25 05:28:32;;;;;;;11.20;3.13;;;;;;;;;;4914682;29;20032;-71
2022/09/25 05:31:02;;;;;;;7.03;2.30;;;;;;;;;;4913439;29;20091;-57
2022/09/25 05:33:28;;;;;;;9.15;2.58;;;;;;;;;;4916983;29;20108;-56
2022/09/25 05:35:53;;;;;;;11.15;2.97;;;;;;;;;;4914665;29;20039;-58
2022/09/25 05:38:19;;;;;;;9.52;2.40;;;;;;;;;;4914753;29;20385;-57
2022/09/25 05:40:44;;;;;;;7.97;2.60;;;;;;;;;;4916009;29;20082;-58
2022/09/25 05:43:11;;;;;;;10.23;2.45;;;;;;;;;;4910833;29;20358;-62
2022/09/25 05:45:37;;;;;;;9.15;2.70;;;;;;;;;;4915106;29;20043;-62
2022/09/25 05:48:05;;;;;;;10.00;2.60;;;;;;;;;;4913504;29;20036;-62
2022/09/25 05:50:33;;;;;;;10.70;2.80;;;;;;;;;;4912324;29;20063;-61
2022/09/25 05:53:03;;;;;;;9.00;2.60;;;;;;;;;;4914300;29;20070;-62
2022/09/25 05:55:29;;;;;;;9.00;2.60;;;;;;;;;;4913901;29;20489;-62
2022/09/25 05:58:02;;;;;;;13.25;3.05;;;;;;;;;;4908275;29;20279;-62
2022/09/25 06:00:31;;;;;;;7.40;2.63;;;;;;;;;;4913573;29;20427;-63
2022/09/25 06:02:57;;;;;;;10.88;3.00;;;;;;;;;;4896008;29;20044;-62
2022/09/25 06:05:22;;;;;;;12.25;2.70;;;;;;;;;;4914068;29;20047;-62
2022/09/25 06:07:54;;;;;;;13.23;3.38;;;;;;;;;;4915708;29;20508;-62
2022/09/25 06:10:20;;;;;;;9.27;2.85;;;;;;;;;;4913695;29;20036;-62
2022/09/25 06:12:45;;;;;;;9.60;3.17;;;;;;;;;;4915997;29;20091;-62
2022/09/25 06:15:10;;;;;;;8.20;3.10;;;;;;;;;;4920009;29;20036;-62
2022/09/25 06:17:36;;;;;;;11.50;3.20;;;;;;;;;;4914312;29;20039;-61
2022/09/25 06:20:01;;;;;;;12.93;3.60;;;;;;;;;;4917270;29;20036;-63
2022/09/25 06:22:27;;;;;;;11.18;3.38;;;;;;;;;;4915501;29;20032;-62
2022/09/25 06:24:52;;;;;;;9.77;3.25;;;;;;;;;;4911163;29;20028;-62
2022/09/25 06:27:17;;;;;;;7.97;3.10;;;;;;;;;;4896830;29;20047;-62
2022/09/25 06:29:43;;;;;;;11.77;3.17;;;;;;;;;;4896181;29;20047;-62
2022/09/25 06:32:08;;;;;;;10.23;3.55;;;;;;;;;;4912051;29;20036;-62
2022/09/25 06:34:33;;;;;;;8.07;3.15;;;;;;;;;;4913324;29;20040;-62
2022/09/25 06:37:00;;;;;;;32.08;5.10;;;;;;;;;;4912572;29;20400;-62
2022/09/25 06:39:25;;;;;;;10.43;2.92;;;;;;;;;;4896064;29;20392;-62
2022/09/25 06:41:54;;;;;;;10.35;3.03;;;;;;;;;;4913353;29;20497;-61
2022/09/25 06:44:20;;;;;;;9.25;3.00;;;;;;;;;;4913079;29;20032;-61
2022/09/25 06:46:53;;;;;;;8.52;2.72;;;;;;;;;;4895126;29;20040;-62
2022/09/25 06:49:19;;;;;;;7.07;2.90;;;;;;;;;;4913609;29;20040;-62
2022/09/25 06:51:45;;;;;;;9.48;3.15;;;;;;;;;;4896598;29;20032;-61
2022/09/25 06:54:11;;;;;;;12.45;3.05;;;;;;;;;;4912899;29;20032;-61
2022/09/25 06:56:36;;;;;;;8.50;2.88;;;;;;;;;;4913205;29;20437;-63
2022/09/25 06:59:04;;;;;;;11.65;3.40;;;;;;;;;;4911994;29;20039;-63
2022/09/25 07:01:30;;;;;;;8.20;3.05;;;;;;;;;;4893069;29;20040;-61
2022/09/25 07:03:55;;;;;;;7.28;3.20;;;;;;;;;;4912168;29;20111;-62
2022/09/25 07:06:25;;;;;;;10.95;3.17;;;;;;;;;;4913099;29;20044;-61
2022/09/25 07:08:51;;;;;;;7.88;2.92;;;;;;;;;;4907796;29;20044;-62
2022/09/25 07:11:22;;;;;;;9.23;2.70;;;;;;;;;;4896325;29;20157;-62
2022/09/25 07:13:53;;;;;;;8.23;2.72;;;;;;;;;;4913496;29;20064;-63
2022/09/25 07:16:21;;;;;;;8.55;2.40;;;;;;;;;;4913515;29;20090;-63
2022/09/25 07:18:46;;;;;;;7.88;2.63;;;;;;;;;;4913853;29;20036;-63
2022/09/25 07:21:14;;;;;;;7.68;2.60;;;;;;;;;;4913458;29;20039;-63
2022/09/25 07:23:41;;;;;;;8.50;2.35;;;;;;;;;;4929600;29;20122;-62
2022/09/25 07:26:12;;;;;;;7.20;2.42;;;;;;;;;;4911260;29;20036;-64
2022/09/25 07:28:39;;;;;;;8.80;2.90;;;;;;;;;;4905086;29;20059;-62
2022/09/25 07:31:37;;;;;;;8.52;2.40;;;;;;;;;;4912680;29;20051;-63
2022/09/25 07:34:07;;;;;;;11.18;2.50;;;;;;;;;;4881691;29;20397;-62
2022/09/25 07:36:34;;;;;;;8.65;2.22;;;;;;;;;;4910283;29;20115;-63
2022/09/25 07:38:59;;;;;;;9.57;2.53;;;;;;;;;;4910514;29;20044;-62
2022/09/25 07:41:24;;;;;;;7.45;2.38;;;;;;;;;;4912657;29;20046;-62
2022/09/25 07:43:56;;;;;;;7.10;2.13;;;;;;;;;;4913160;29;20040;-62
2022/09/25 07:46:21;;;;;;;8.13;2.20;;;;;;;;;;4909843;29;20067;-62
2022/09/25 07:48:51;;;;;;;8.02;1.85;;;;;;;;;;4913187;29;20063;-62
2022/09/25 07:51:16;;;;;;;10.30;2.53;;;;;;;;;;4896154;29;20036;-62
2022/09/25 07:53:42;;;;;;;5.63;1.60;;;;;;;;;;4913965;29;20036;-62
2022/09/25 07:56:09;;;;;;;9.05;2.10;;;;;;;;;;4903440;29;20489;-63
2022/09/25 07:58:50;;;;;;;3.70;1.77;;;;;;;;;;4900137;29;20032;-62
2022/09/25 08:01:16;;;;;;;8.50;2.15;;;;;;;;;;4914349;29;20044;-63
2022/09/25 08:03:41;;;;;;;6.65;1.75;;;;;;;;;;4916961;29;20051;-62
2022/09/25 08:06:32;;;;;;;6.10;1.73;;;;;;;;;;4897059;29;20075;-62
2022/09/25 08:09:05;;;;;;;12.38;2.08;;;;;;;;;;4918023;29;20064;-62
2022/09/25 08:11:30;;;;;;;12.43;2.20;;;;;;;;;;4917463;29;20036;-62
2022/09/25 08:13:56;;;;;;;6.97;1.67;;;;;;;;;;4918017;29;20381;-62
2022/09/25 08:16:22;;;;;;;6.78;1.60;;;;;;;;;;4916972;29;20036;-62
2022/09/25 08:18:48;;;;;;;7.85;1.73;;;;;;;;;;4902646;29;20040;-63
2022/09/25 08:21:18;;;;;;;7.32;1.90;;;;;;;;;;4912774;29;20059;-63
2022/09/25 08:23:48;;;;;;;8.32;1.60;;;;;;;;;;4917159;29;20043;-63
2022/09/25 08:26:20;;;;;;;9.02;1.98;;;;;;;;;;4915649;29;20040;-63
2022/09/25 08:28:45;;;;;;;9.80;1.63;;;;;;;;;;4917533;29;20036;-63
2022/09/25 08:31:13;;;;;;;7.88;1.50;;;;;;;;;;4914342;29;20035;-62
2022/09/25 08:33:42;;;;;;;9.20;1.75;;;;;;;;;;4916355;29;20036;-62
2022/09/25 08:36:08;;;;;;;6.00;1.48;;;;;;;;;;4912485;29;20036;-62
2022/09/25 08:38:33;;;;;;;7.20;1.50;;;;;;;;;;4899236;29;20139;-62
2022/09/25 08:41:02;;;;;;;6.47;1.60;;;;;;;;;;4914745;29;20036;-62
2022/09/25 08:43:29;;;;;;;4.93;1.42;;;;;;;;;;4915143;29;20036;-63
2022/09/25 08:49:05;;;;;;;3.50;1.08;;;;;;;;;;4914717;29;20056;-63
2022/09/25 08:51:45;;;;;;;5.50;1.45;;;;;;;;;;4916322;29;20040;-62
2022/09/25 08:54:20;;;;;;;5.28;1.38;;;;;;;;;;4913962;29;20051;-63
2022/09/25 08:56:49;;;;;;;7.50;1.45;;;;;;;;;;4912426;29;20071;-62
2022/09/25 08:59:25;;;;;;;8.20;1.30;;;;;;;;;;4898313;29;20032;-62
2022/09/25 09:01:54;;;;;;;5.90;1.17;;;;;;;;;;4915158;29;20044;-62
2022/09/25 09:04:34;;;;;;;4.35;1.40;;;;;;;;;;4914994;29;20137;-63
2022/09/25 09:07:33;;;;;;;7.05;1.30;;;;;;;;;;4915231;29;20044;-63
2022/09/25 09:10:24;;;;;;;4.47;1.20;;;;;;;;;;4900153;29;20048;-63
2022/09/25 09:12:59;;;;;;;8.65;1.30;;;;;;;;;;4915316;29;20028;-62
2022/09/25 09:15:41;;;;;;;5.68;1.15;;;;;;;;;;4915032;29;20047;-63
2022/09/25 09:18:19;;;;;;;6.25;1.13;;;;;;;;;;4915503;29;20098;-63
2022/09/25 09:20:53;;;;;;;6.03;1.13;;;;;;;;;;4914424;29;20040;-63
2022/09/25 09:23:23;;;;;;;6.85;1.40;;;;;;;;;;4915239;29;20036;-63
2022/09/25 09:25:58;;;;;;;6.53;1.38;;;;;;;;;;4913259;29;20123;-63
2022/09/25 09:29:02;;;;;;;4.95;1.20;;;;;;;;;;4914714;29;20154;-63
2022/09/25 09:32:06;;;;;;;4.68;1.20;;;;;;;;;;4866472;29;20059;-62
2022/09/25 09:34:46;;;;;;;3.47;1.05;;;;;;;;;;4893101;29;20537;-62
2022/09/25 09:37:21;;;;;;;3.13;1.00;;;;;;;;;;4912550;29;20056;-62
2022/09/25 09:40:17;;;;;;;4.53;1.45;;;;;;;;;;4902232;29;20040;-62
2022/09/25 09:43:30;;;;;;;4.70;1.10;;;;;;;;;;4906066;29;20433;-62
2022/09/25 09:45:55;;;;;;;5.13;1.35;;;;;;;;;;4904027;29;20502;-62
2022/09/25 09:48:34;;;;;;;3.15;1.10;;;;;;;;;;4912037;29;20032;-62
2022/09/25 09:51:10;;;;;;;3.88;1.10;;;;;;;;;;4897335;29;20107;-61
2022/09/25 09:54:01;;;;;;;3.67;1.42;;;;;;;;;;4915997;29;20047;-61
2022/09/25 09:56:30;;;;;;;2.63;1.00;;;;;;;;;;4913316;29;20039;-61
2022/09/25 09:59:24;;;;;;;3.13;1.00;;;;;;;;;;4913212;29;20035;-62
2022/09/25 10:02:19;;;;;;;3.80;1.88;;;;;;;;;;4913084;29;20563;-62
2022/09/25 10:04:46;;;;;;;6.70;1.20;;;;;;;;;;4909170;29;20079;-62
2022/09/25 10:07:17;;;;;;;5.07;1.67;;;;;;;;;;4913919;29;20456;-61
2022/09/25 10:09:42;;;;;;;4.20;1.30;;;;;;;;;;4913639;29;20078;-62
2022/09/25 10:12:25;;;;;;;5.10;1.30;;;;;;;;;;4908887;29;20040;-62
2022/09/25 10:14:51;;;;;;;3.97;1.33;;;;;;;;;;4902101;29;20032;-62
2022/09/25 10:17:18;;;;;;;4.00;1.33;;;;;;;;;;4914325;29;20043;-64
2022/09/25 10:20:07;;;;;;;5.53;1.50;;;;;;;;;;4910994;29;20028;-61
2022/09/25 10:22:41;;;;;;;3.95;1.48;;;;;;;;;;4882739;29;20055;-60
2022/09/25 10:25:07;;;;;;;3.42;1.15;;;;;;;;;;4913842;29;20036;-61
2022/09/25 10:27:36;;;;;;;4.90;1.40;;;;;;;;;;4914602;29;20047;-58
2022/09/25 10:30:07;;;;;;;4.07;1.25;;;;;;;;;;4914021;29;20473;-61
2022/09/25 10:32:56;;;;;;;5.45;1.30;;;;;;;;;;4914484;29;20388;-60
2022/09/25 10:35:31;;;;;;;3.47;1.20;;;;;;;;;;4910753;29;20080;-60
2022/09/25 10:38:00;;;;;;;4.78;1.00;;;;;;;;;;4904239;29;20067;-61
2022/09/25 10:40:35;;;;;;;3.45;1.17;;;;;;;;;;4908337;29;20035;-60
2022/09/25 10:43:19;;;;;;;3.90;1.27;;;;;;;;;;4909646;29;20043;-60
2022/09/25 10:45:48;;;;;;;5.75;1.10;;;;;;;;;;4910191;29;20532;-59
2022/09/25 10:51:17;;;;;;;4.30;1.23;;;;;;;;;;4911463;29;20519;-63
2022/09/25 10:53:49;;;;;;;3.72;1.20;;;;;;;;;;4914520;29;20088;-63
2022/09/25 10:56:19;;;;;;;2.20;1.05;;;;;;;;;;4913018;29;20054;-63
2022/09/25 10:58:47;;;;;;;2.85;1.00;;;;;;;;;;4913617;29;20036;-63
2022/09/25 11:01:15;;;;;;;3.58;1.23;;;;;;;;;;4910975;29;20032;-63
2022/09/25 11:03:57;;;;;;;3.13;0.95;;;;;;;;;;4907124;29;20390;-64
2022/09/25 11:06:28;;;;;;;2.03;0.90;;;;;;;;;;4911534;29;20135;-64
2022/09/25 11:08:59;;;;;;;;;;;;;;;;;;4914093;29;20433;-64
2022/09/25 11:11:25;;;;;;;4.68;1.20;;;;;;;;;;4905544;29;19919;-63
2022/09/25 11:13:54;;;;;;;5.35;1.10;;;;;;;;;;4913467;29;20028;-63
2022/09/25 11:16:20;;;;;;;6.22;1.27;;;;;;;;;;4917175;29;20370;-63
2022/09/25 11:18:49;;;;;;;3.47;1.23;;;;;;;;;;4914963;29;20059;-63
2022/09/25 11:21:36;;;;;;;2.95;1.05;;;;;;;;;;4912321;29;20040;-65
2022/09/25 11:24:35;;;;;;;3.60;0.98;;;;;;;;;;4902227;29;20063;-61
2022/09/25 11:27:30;;;;;;;3.70;0.95;;;;;;;;;;4912772;29;20048;-63
2022/09/25 11:30:10;;;;;;;3.83;0.98;;;;;;;;;;4912339;29;20043;-63
2022/09/25 11:33:02;;;;;;;4.68;1.00;;;;;;;;;;4911712;29;20043;-64
2022/09/25 11:35:39;;;;;;;4.47;1.23;;;;;;;;;;4907395;29;20647;-62
2022/09/25 11:41:30;;;;;;;3.10;1.02;;;;;;;;;;4891725;29;20055;-59
2022/09/25 11:44:11;;;;;;;3.70;1.10;;;;;;;;;;4889274;29;20072;-59
2022/09/25 11:46:38;;;;;;;5.32;1.17;;;;;;;;;;4891506;29;20127;-58
2022/09/25 11:49:14;;;;;;;3.70;1.20;;;;;;;;;;4897667;29;20044;-57
2022/09/25 11:52:04;;;;;;;3.55;1.08;;;;;;;;;;4892619;29;20438;-58
2022/09/25 11:54:38;;;;;;;2.97;1.00;;;;;;;;;;4891410;29;20041;-64
2022/09/25 11:57:15;;;;;;;2.10;0.75;;;;;;;;;;4894826;29;20033;-61
2022/09/25 11:59:49;;;;;;;2.78;0.60;;;;;;;;;;4899401;29;20044;-60
2022/09/25 12:02:26;;;;;;;3.20;1.00;;;;;;;;;;4895097;29;20116;-59
2022/09/25 12:05:17;;;;;;;3.92;1.10;;;;;;;;;;4896673;29;20048;-58
2022/09/25 12:08:11;;;;;;;2.55;1.13;;;;;;;;;;4893230;29;20052;-60
2022/09/25 12:10:52;;;;;;;3.30;1.27;;;;;;;;;;4896145;29;20067;-61
2022/09/25 12:13:33;;;;;;;2.95;1.10;;;;;;;;;;4897985;29;20048;-60
2022/09/25 12:16:17;;;;;;;3.17;0.95;;;;;;;;;;4897547;29;20116;-60
2022/09/25 12:18:54;;;;;;;5.10;1.25;;;;;;;;;;4896022;29;20036;-58
2022/09/25 12:21:46;;;;;;;8.02;4.60;;;;;;;;;;4895697;29;20492;-58
2022/09/25 12:24:51;;;;;;;3.70;1.40;;;;;;;;;;4896384;29;20096;-58
2022/09/25 12:27:48;;;;;;;6.03;1.05;;;;;;;;;;4896372;29;20073;-58
2022/09/25 12:30:19;;;;;;;3.53;1.10;;;;;;;;;;4895745;29;20545;-59
2022/09/25 12:33:04;;;;;;;4.43;1.30;;;;;;;;;;4898512;29;20037;-57
2022/09/25 12:36:07;;;;;;;4.82;1.55;;;;;;;;;;4897049;29;20032;-58
2022/09/25 12:38:48;;;;;;;2.85;1.08;;;;;;;;;;4885952;29;20127;-60
2022/09/25 12:41:18;;;;;;;4.68;1.20;;;;;;;;;;4895703;29;20059;-59
2022/09/25 12:44:13;;;;;;;2.03;1.08;;;;;;;;;;4889390;29;20030;-58
2022/09/25 12:47:04;;;;;;;2.28;1.08;;;;;;;;;;4897475;29;20044;-59
2022/09/25 12:49:38;;;;;;;5.60;1.35;;;;;;;;;;4888118;29;20361;-59
2022/09/25 12:52:12;;;;;;;2.90;1.38;;;;;;;;;;4896760;29;20060;-58
2022/09/25 12:54:41;;;;;;;3.35;0.80;;;;;;;;;;4893354;29;20044;-59
2022/09/25 12:57:17;;;;;;;4.10;0.90;;;;;;;;;;4897878;29;20084;-59
2022/09/25 12:59:52;;;;;;;3.92;1.10;;;;;;;;;;4897319;29;20033;-59
2022/09/25 13:02:24;;;;;;;3.60;1.08;;;;;;;;;;4897015;29;20120;-58
2022/09/25 13:05:22;;;;;;;4.68;1.20;;;;;;;;;;4897856;29;20063;-58
2022/09/25 13:07:54;;;;;;;4.05;1.10;;;;;;;;;;4879817;29;20043;-60
2022/09/25 13:10:19;;;;;;;7.35;1.33;;;;;;;;;;4896619;29;20024;-59
2022/09/25 13:12:46;;;;;;;5.38;1.40;;;;;;;;;;4897577;29;20033;-59
2022/09/25 13:15:17;;;;;;;2.92;1.20;;;;;;;;;;4897326;29;20115;-60
2022/09/25 13:17:42;;;;;;;3.60;1.30;;;;;;;;;;4897600;29;20032;-59
2022/09/25 13:20:26;;;;;;;3.78;1.23;;;;;;;;;;4896483;29;20055;-58
2022/09/25 13:22:57;;;;;;;4.50;1.30;;;;;;;;;;4897483;29;20047;-59
2022/09/25 13:25:24;;;;;;;;;;;;;;;;;;4897020;29;20047;-59
2022/09/25 13:27:53;;;;;;;4.00;1.42;;;;;;;;;;4896795;29;19915;-59
2022/09/25 13:30:24;;;;;;;4.38;1.30;;;;;;;;;;4894804;29;20060;-59
2022/09/25 13:32:54;;;;;;;3.50;1.10;;;;;;;;;;4897225;29;20500;-59
2022/09/25 13:35:22;;;;;;;5.22;1.13;;;;;;;;;;4896536;29;20498;-59
2022/09/25 13:37:50;;;;;;;3.78;1.20;;;;;;;;;;4897137;29;20044;-60
2022/09/25 13:43:19;;;;;;;1.55;1.00;;;;;;;;;;4893715;29;20476;-59
2022/09/25 13:45:45;;;;;;;2.95;1.08;;;;;;;;;;4878621;29;20060;-59
2022/09/25 13:48:14;;;;;;;3.97;1.00;;;;;;;;;;4885749;29;20462;-60
2022/09/25 13:50:41;;;;;;;3.17;0.90;;;;;;;;;;4880914;29;20033;-59
2022/09/25 13:53:19;;;;;;;4.47;1.00;;;;;;;;;;4880329;29;20092;-59
2022/09/25 13:55:47;;;;;;;3.78;0.98;;;;;;;;;;4897024;29;20033;-58
2022/09/25 13:58:20;;;;;;;1.98;1.00;;;;;;;;;;4894886;29;20064;-60
2022/09/25 14:00:45;;;;;;;5.45;1.45;;;;;;;;;;4896776;29;20505;-59
2022/09/25 14:03:38;;;;;;;4.28;1.52;;;;;;;;;;4901777;29;20091;-59
2022/09/25 14:06:31;;;;;;;4.47;1.38;;;;;;;;;;4909662;29;20048;-59
2022/09/25 14:09:07;;;;;;;4.50;1.30;;;;;;;;;;4898440;29;20040;-59
2022/09/25 14:11:36;;;;;;;3.78;1.10;;;;;;;;;;4895943;29;20029;-59
2022/09/25 14:14:08;;;;;;;2.15;1.10;;;;;;;;;;4895208;29;20591;-60
2022/09/25 14:16:40;;;;;;;3.72;1.17;;;;;;;;;;4896085;29;20538;-59
2022/09/25 14:19:07;;;;;;;3.70;1.05;;;;;;;;;;4890767;29;20040;-59
2022/09/25 14:21:33;;;;;;;1.80;0.90;;;;;;;;;;4896784;29;20120;-59
2022/09/25 14:24:15;;;;;;;3.03;1.40;;;;;;;;;;4895901;29;20069;-58
2022/09/25 14:26:44;;;;;;;3.42;1.20;;;;;;;;;;4900510;29;20043;-58
2022/09/25 14:29:22;;;;;;;5.32;1.30;;;;;;;;;;4895263;29;20420;-58
2022/09/25 14:31:53;;;;;;;2.13;1.10;;;;;;;;;;4895638;29;20028;-59
2022/09/25 14:34:43;;;;;;;4.07;1.20;;;;;;;;;;4886876;29;20089;-60
2022/09/25 14:37:46;;;;;;;4.50;1.20;;;;;;;;;;4888183;29;20041;-59
2022/09/25 14:40:21;;;;;;;3.47;1.20;;;;;;;;;;4884025;29;20063;-59
2022/09/25 14:43:26;;;;;;;2.88;1.10;;;;;;;;;;4903925;29;20100;-60
2022/09/25 14:45:59;;;;;;;4.38;0.90;;;;;;;;;;4880812;29;20032;-59
2022/09/25 14:48:31;;;;;;;3.65;1.10;;;;;;;;;;4901700;29;20036;-59
2022/09/25 14:51:01;;;;;;;2.70;1.20;;;;;;;;;;4895628;29;20068;-59
2022/09/25 14:53:37;;;;;;;2.60;0.90;;;;;;;;;;4894200;29;20120;-59
2022/09/25 14:56:04;;;;;;;3.55;1.13;;;;;;;;;;4889525;29;20048;-59
2022/09/25 14:58:31;;;;;;;1.50;1.08;;;;;;;;;;4884591;29;20035;-59
2022/09/25 15:01:08;;;;;;;2.97;0.95;;;;;;;;;;4885092;29;20052;-59
2022/09/25 15:03:38;;;;;;;3.28;1.20;;;;;;;;;;4886879;29;20872;-60
2022/09/25 15:06:04;;;;;;;3.58;1.20;;;;;;;;;;4892258;29;20036;-59
2022/09/25 15:08:29;;;;;;;2.33;0.90;;;;;;;;;;4897585;29;20557;-59
2022/09/25 15:11:24;;;;;;;4.15;1.13;;;;;;;;;;4911975;29;20241;-59
2022/09/25 15:13:50;;;;;;;2.58;1.20;;;;;;;;;;4889463;29;20078;-59
2022/09/25 15:19:19;;;;;;;2.47;1.10;;;;;;;;;;4881142;29;20044;-59
2022/09/25 15:21:45;;;;;;;2.22;0.90;;;;;;;;;;4890167;29;20036;-59
2022/09/25 15:24:18;;;;;;;1.30;0.98;;;;;;;;;;4907461;29;20043;-60
2022/09/25 15:26:55;;;;;;;5.88;1.08;;;;;;;;;;4907299;29;20040;-58
2022/09/25 15:29:22;;;;;;;3.67;1.60;;;;;;;;;;4899057;29;20116;-60
2022/09/25 15:31:49;;;;;;;3.65;1.20;;;;;;;;;;4888113;29;20138;-59
2022/09/25 15:34:22;;;;;;;2.15;1.10;;;;;;;;;;4891237;29;20040;-59
2022/09/25 15:36:49;;;;;;;2.35;0.98;;;;;;;;;;4890440;29;20117;-59